sensor_id;sensor_type;location;lat;lon;timestamp;P1;durP1;ratioP1;P2;durP2;ratioP2
15982;SDS011;14442;50.196;8.096;2022-10-17T00:00:19;1.00;;;0.30;;
15982;SDS011;14442;50.196;8.096;2022-10-17T00:02:45;0.40;;;0.40;;
15982;SDS011;14442;50.196;8.096;2022-10-17T00:05:12;1.23;;;0.40;;
15982;SDS011;14442;50.196;8.096;2022-10-17T00:07:39;0.50;;;0.50;;
15982;SDS011;14442;50.196;8.096;2022-10-17T00:10:06;0.50;;;0.50;;
15982;SDS011;14442;50.196;8.096;2022-10-17T00:12:33;0.40;;;0.40;;
15982;SDS011;14442;50.196;8.096;2022-10-17T00:15:01;0.30;;;0.30;;
15982;SDS011;14442;50.196;8.096;2022-10-17T00:17:30;0.70;;;0.50;;
15982;SDS011;14442;50.196;8.096;2022-10-17T00:19:57;0.40;;;0.40;;
15982;SDS011;14442;50.196;8.096;2022-10-17T00:22:24;0.50;;;0.50;;
15982;SDS011;14442;50.196;8.096;2022-10-17T00:24:51;0.40;;;0.40;;
15982;SDS011;14442;50.196;8.096;2022-10-17T00:27:18;0.80;;;0.80;;
15982;SDS011;14442;50.196;8.096;2022-10-17T00:29:46;0.40;;;0.40;;
15982;SDS011;14442;50.196;8.096;2022-10-17T00:32:13;0.43;;;0.30;;
15982;SDS011;14442;50.196;8.096;2022-10-17T00:34:41;0.40;;;0.40;;
15982;SDS011;14442;50.196;8.096;2022-10-17T00:37:08;0.57;;;0.57;;
15982;SDS011;14442;50.196;8.096;2022-10-17T00:39:35;0.50;;;0.50;;
15982;SDS011;14442;50.196;8.096;2022-10-17T00:42:01;0.33;;;0.33;;
15982;SDS011;14442;50.196;8.096;2022-10-17T00:47:34;0.40;;;0.40;;
15982;SDS011;14442;50.196;8.096;2022-10-17T00:50:03;1.03;;;0.50;;
15982;SDS011;14442;50.196;8.096;2022-10-17T00:52:31;0.50;;;0.30;;
15982;SDS011;14442;50.196;8.096;2022-10-17T00:54:59;0.40;;;0.40;;
15982;SDS011;14442;50.196;8.096;2022-10-17T00:57:48;0.93;;;0.53;;
15982;SDS011;14442;50.196;8.096;2022-10-17T01:00:15;0.40;;;0.40;;
15982;SDS011;14442;50.196;8.096;2022-10-17T01:02:42;0.40;;;0.40;;
15982;SDS011;14442;50.196;8.096;2022-10-17T01:05:11;0.30;;;0.30;;
15982;SDS011;14442;50.196;8.096;2022-10-17T01:07:39;0.53;;;0.30;;
15982;SDS011;14442;50.196;8.096;2022-10-17T01:10:07;0.83;;;0.60;;
15982;SDS011;14442;50.196;8.096;2022-10-17T01:12:39;0.40;;;0.40;;
15982;SDS011;14442;50.196;8.096;2022-10-17T01:15:16;0.40;;;0.40;;
15982;SDS011;14442;50.196;8.096;2022-10-17T01:17:52;0.40;;;0.40;;
15982;SDS011;14442;50.196;8.096;2022-10-17T01:20:36;0.50;;;0.50;;
15982;SDS011;14442;50.196;8.096;2022-10-17T01:23:41;0.50;;;0.50;;
15982;SDS011;14442;50.196;8.096;2022-10-17T01:26:24;0.53;;;0.40;;
15982;SDS011;14442;50.196;8.096;2022-10-17T01:31:59;0.70;;;0.50;;
15982;SDS011;14442;50.196;8.096;2022-10-17T01:34:30;0.60;;;0.60;;
15982;SDS011;14442;50.196;8.096;2022-10-17T01:37:01;0.53;;;0.53;;
15982;SDS011;14442;50.196;8.096;2022-10-17T01:39:33;0.73;;;0.50;;
15982;SDS011;14442;50.196;8.096;2022-10-17T01:42:09;0.40;;;0.40;;
15982;SDS011;14442;50.196;8.096;2022-10-17T01:44:41;0.77;;;0.50;;
15982;SDS011;14442;50.196;8.096;2022-10-17T01:47:16;0.60;;;0.43;;
15982;SDS011;14442;50.196;8.096;2022-10-17T01:49:45;0.40;;;0.40;;
15982;SDS011;14442;50.196;8.096;2022-10-17T01:52:16;0.50;;;0.40;;
15982;SDS011;14442;50.196;8.096;2022-10-17T01:54:46;0.50;;;0.50;;
15982;SDS011;14442;50.196;8.096;2022-10-17T01:57:17;1.23;;;0.40;;
15982;SDS011;14442;50.196;8.096;2022-10-17T01:59:50;0.37;;;0.37;;
15982;SDS011;14442;50.196;8.096;2022-10-17T02:02:19;0.50;;;0.50;;
15982;SDS011;14442;50.196;8.096;2022-10-17T02:04:46;0.60;;;0.43;;
15982;SDS011;14442;50.196;8.096;2022-10-17T02:07:15;1.10;;;0.40;;
15982;SDS011;14442;50.196;8.096;2022-10-17T02:09:42;0.40;;;0.40;;
15982;SDS011;14442;50.196;8.096;2022-10-17T02:12:12;0.43;;;0.43;;
15982;SDS011;14442;50.196;8.096;2022-10-17T02:15:10;1.47;;;0.50;;
15982;SDS011;14442;50.196;8.096;2022-10-17T02:17:56;0.53;;;0.53;;
15982;SDS011;14442;50.196;8.096;2022-10-17T02:20:32;0.30;;;0.30;;
15982;SDS011;14442;50.196;8.096;2022-10-17T02:23:06;0.30;;;0.30;;
15982;SDS011;14442;50.196;8.096;2022-10-17T02:25:38;0.40;;;0.40;;
15982;SDS011;14442;50.196;8.096;2022-10-17T02:28:14;0.93;;;0.50;;
15982;SDS011;14442;50.196;8.096;2022-10-17T02:30:46;0.60;;;0.50;;
15982;SDS011;14442;50.196;8.096;2022-10-17T02:33:21;0.40;;;0.40;;
15982;SDS011;14442;50.196;8.096;2022-10-17T02:35:52;1.40;;;0.60;;
15982;SDS011;14442;50.196;8.096;2022-10-17T02:38:22;1.23;;;0.50;;
15982;SDS011;14442;50.196;8.096;2022-10-17T02:40:52;0.50;;;0.50;;
15982;SDS011;14442;50.196;8.096;2022-10-17T02:43:20;0.77;;;0.40;;
15982;SDS011;14442;50.196;8.096;2022-10-17T02:45:48;1.17;;;0.40;;
15982;SDS011;14442;50.196;8.096;2022-10-17T02:48:17;0.50;;;0.50;;
15982;SDS011;14442;50.196;8.096;2022-10-17T02:50:52;0.50;;;0.40;;
15982;SDS011;14442;50.196;8.096;2022-10-17T02:53:27;0.37;;;0.37;;
15982;SDS011;14442;50.196;8.096;2022-10-17T02:56:01;0.50;;;0.50;;
15982;SDS011;14442;50.196;8.096;2022-10-17T02:58:33;0.40;;;0.40;;
15982;SDS011;14442;50.196;8.096;2022-10-17T03:01:03;0.33;;;0.33;;
15982;SDS011;14442;50.196;8.096;2022-10-17T03:03:32;0.97;;;0.70;;
15982;SDS011;14442;50.196;8.096;2022-10-17T03:05:58;0.60;;;0.40;;
15982;SDS011;14442;50.196;8.096;2022-10-17T03:08:25;0.60;;;0.43;;
15982;SDS011;14442;50.196;8.096;2022-10-17T03:10:52;0.40;;;0.40;;
15982;SDS011;14442;50.196;8.096;2022-10-17T03:13:18;0.47;;;0.47;;
15982;SDS011;14442;50.196;8.096;2022-10-17T03:15:45;0.53;;;0.53;;
15982;SDS011;14442;50.196;8.096;2022-10-17T03:18:12;0.67;;;0.30;;
15982;SDS011;14442;50.196;8.096;2022-10-17T03:20:40;0.80;;;0.60;;
15982;SDS011;14442;50.196;8.096;2022-10-17T03:23:07;0.33;;;0.33;;
15982;SDS011;14442;50.196;8.096;2022-10-17T03:25:34;1.17;;;1.00;;
15982;SDS011;14442;50.196;8.096;2022-10-17T03:28:00;0.30;;;0.30;;
15982;SDS011;14442;50.196;8.096;2022-10-17T03:30:27;0.50;;;0.40;;
15982;SDS011;14442;50.196;8.096;2022-10-17T03:32:54;0.50;;;0.50;;
15982;SDS011;14442;50.196;8.096;2022-10-17T03:35:22;0.77;;;0.50;;
15982;SDS011;14442;50.196;8.096;2022-10-17T03:37:50;0.40;;;0.40;;
15982;SDS011;14442;50.196;8.096;2022-10-17T03:40:17;2.10;;;0.60;;
15982;SDS011;14442;50.196;8.096;2022-10-17T03:42:43;0.77;;;0.40;;
15982;SDS011;14442;50.196;8.096;2022-10-17T03:45:10;0.50;;;0.40;;
15982;SDS011;14442;50.196;8.096;2022-10-17T03:47:37;0.60;;;0.60;;
15982;SDS011;14442;50.196;8.096;2022-10-17T03:50:04;0.40;;;0.40;;
15982;SDS011;14442;50.196;8.096;2022-10-17T03:52:31;0.57;;;0.57;;
15982;SDS011;14442;50.196;8.096;2022-10-17T03:54:59;0.50;;;0.50;;
15982;SDS011;14442;50.196;8.096;2022-10-17T03:57:26;0.30;;;0.30;;
15982;SDS011;14442;50.196;8.096;2022-10-17T03:59:52;0.40;;;0.40;;
15982;SDS011;14442;50.196;8.096;2022-10-17T04:02:19;0.73;;;0.40;;
15982;SDS011;14442;50.196;8.096;2022-10-17T04:04:45;0.30;;;0.30;;
15982;SDS011;14442;50.196;8.096;2022-10-17T04:07:12;0.47;;;0.47;;
15982;SDS011;14442;50.196;8.096;2022-10-17T04:09:39;0.30;;;0.30;;
15982;SDS011;14442;50.196;8.096;2022-10-17T04:12:07;0.63;;;0.40;;
15982;SDS011;14442;50.196;8.096;2022-10-17T04:14:33;0.47;;;0.47;;
15982;SDS011;14442;50.196;8.096;2022-10-17T04:17:01;0.50;;;0.50;;
15982;SDS011;14442;50.196;8.096;2022-10-17T04:19:28;0.50;;;0.50;;
15982;SDS011;14442;50.196;8.096;2022-10-17T04:21:54;0.40;;;0.40;;
15982;SDS011;14442;50.196;8.096;2022-10-17T04:24:21;0.43;;;0.30;;
15982;SDS011;14442;50.196;8.096;2022-10-17T04:26:49;0.40;;;0.40;;
15982;SDS011;14442;50.196;8.096;2022-10-17T04:29:18;0.50;;;0.50;;
15982;SDS011;14442;50.196;8.096;2022-10-17T04:31:44;0.50;;;0.50;;
15982;SDS011;14442;50.196;8.096;2022-10-17T04:34:11;0.50;;;0.50;;
15982;SDS011;14442;50.196;8.096;2022-10-17T04:36:38;0.33;;;0.33;;
15982;SDS011;14442;50.196;8.096;2022-10-17T04:39:05;0.30;;;0.30;;
15982;SDS011;14442;50.196;8.096;2022-10-17T04:41:32;0.97;;;0.40;;
15982;SDS011;14442;50.196;8.096;2022-10-17T04:43:59;0.30;;;0.30;;
15982;SDS011;14442;50.196;8.096;2022-10-17T04:46:27;0.50;;;0.50;;
15982;SDS011;14442;50.196;8.096;2022-10-17T04:48:54;0.30;;;0.30;;
15982;SDS011;14442;50.196;8.096;2022-10-17T04:51:20;0.40;;;0.40;;
15982;SDS011;14442;50.196;8.096;2022-10-17T04:53:47;0.40;;;0.33;;
15982;SDS011;14442;50.196;8.096;2022-10-17T04:56:14;0.50;;;0.50;;
15982;SDS011;14442;50.196;8.096;2022-10-17T04:58:42;0.43;;;0.43;;
15982;SDS011;14442;50.196;8.096;2022-10-17T05:01:10;0.33;;;0.33;;
15982;SDS011;14442;50.196;8.096;2022-10-17T05:03:39;0.37;;;0.37;;
15982;SDS011;14442;50.196;8.096;2022-10-17T05:06:07;0.67;;;0.40;;
15982;SDS011;14442;50.196;8.096;2022-10-17T05:08:34;0.30;;;0.30;;
15982;SDS011;14442;50.196;8.096;2022-10-17T05:11:02;0.50;;;0.50;;
15982;SDS011;14442;50.196;8.096;2022-10-17T05:13:29;0.40;;;0.40;;
15982;SDS011;14442;50.196;8.096;2022-10-17T05:15:57;0.43;;;0.43;;
15982;SDS011;14442;50.196;8.096;2022-10-17T05:18:24;0.50;;;0.50;;
15982;SDS011;14442;50.196;8.096;2022-10-17T05:20:53;1.13;;;0.50;;
15982;SDS011;14442;50.196;8.096;2022-10-17T05:23:21;0.50;;;0.50;;
15982;SDS011;14442;50.196;8.096;2022-10-17T05:25:52;0.40;;;0.40;;
15982;SDS011;14442;50.196;8.096;2022-10-17T05:28:19;0.60;;;0.60;;
15982;SDS011;14442;50.196;8.096;2022-10-17T05:30:46;0.60;;;0.50;;
15982;SDS011;14442;50.196;8.096;2022-10-17T05:33:13;1.60;;;0.60;;
15982;SDS011;14442;50.196;8.096;2022-10-17T05:35:39;2.60;;;0.73;;
15982;SDS011;14442;50.196;8.096;2022-10-17T05:38:07;0.43;;;0.43;;
15982;SDS011;14442;50.196;8.096;2022-10-17T05:40:34;0.67;;;0.63;;
15982;SDS011;14442;50.196;8.096;2022-10-17T05:43:02;0.50;;;0.47;;
15982;SDS011;14442;50.196;8.096;2022-10-17T05:45:29;1.23;;;0.60;;
15982;SDS011;14442;50.196;8.096;2022-10-17T05:47:55;1.27;;;0.73;;
15982;SDS011;14442;50.196;8.096;2022-10-17T05:50:22;1.33;;;0.40;;
15982;SDS011;14442;50.196;8.096;2022-10-17T05:52:51;0.77;;;0.57;;
15982;SDS011;14442;50.196;8.096;2022-10-17T05:55:20;1.40;;;0.50;;
15982;SDS011;14442;50.196;8.096;2022-10-17T05:57:47;2.20;;;0.50;;
15982;SDS011;14442;50.196;8.096;2022-10-17T06:00:14;1.17;;;0.50;;
15982;SDS011;14442;50.196;8.096;2022-10-17T06:02:41;1.70;;;0.50;;
15982;SDS011;14442;50.196;8.096;2022-10-17T06:05:09;0.60;;;0.50;;
15982;SDS011;14442;50.196;8.096;2022-10-17T06:07:36;0.77;;;0.70;;
15982;SDS011;14442;50.196;8.096;2022-10-17T06:10:03;0.97;;;0.40;;
15982;SDS011;14442;50.196;8.096;2022-10-17T06:12:32;1.17;;;0.40;;
15982;SDS011;14442;50.196;8.096;2022-10-17T06:14:58;0.50;;;0.40;;
15982;SDS011;14442;50.196;8.096;2022-10-17T06:17:25;0.50;;;0.50;;
15982;SDS011;14442;50.196;8.096;2022-10-17T06:19:53;0.80;;;0.53;;
15982;SDS011;14442;50.196;8.096;2022-10-17T06:22:19;0.47;;;0.47;;
15982;SDS011;14442;50.196;8.096;2022-10-17T06:24:46;0.40;;;0.40;;
15982;SDS011;14442;50.196;8.096;2022-10-17T06:27:13;0.87;;;0.70;;
15982;SDS011;14442;50.196;8.096;2022-10-17T06:29:41;0.50;;;0.50;;
15982;SDS011;14442;50.196;8.096;2022-10-17T06:32:07;0.87;;;0.50;;
15982;SDS011;14442;50.196;8.096;2022-10-17T06:34:34;0.40;;;0.40;;
15982;SDS011;14442;50.196;8.096;2022-10-17T06:37:00;1.70;;;0.63;;
15982;SDS011;14442;50.196;8.096;2022-10-17T06:39:27;0.47;;;0.47;;
15982;SDS011;14442;50.196;8.096;2022-10-17T06:41:57;0.73;;;0.50;;
15982;SDS011;14442;50.196;8.096;2022-10-17T06:44:24;0.47;;;0.40;;
15982;SDS011;14442;50.196;8.096;2022-10-17T06:46:55;0.70;;;0.70;;
15982;SDS011;14442;50.196;8.096;2022-10-17T06:49:22;0.50;;;0.50;;
15982;SDS011;14442;50.196;8.096;2022-10-17T06:51:49;0.70;;;0.57;;
15982;SDS011;14442;50.196;8.096;2022-10-17T06:54:16;0.40;;;0.40;;
15982;SDS011;14442;50.196;8.096;2022-10-17T06:56:43;0.80;;;0.60;;
15982;SDS011;14442;50.196;8.096;2022-10-17T06:59:10;0.60;;;0.60;;
15982;SDS011;14442;50.196;8.096;2022-10-17T07:01:36;0.57;;;0.57;;
15982;SDS011;14442;50.196;8.096;2022-10-17T07:04:04;0.70;;;0.50;;
15982;SDS011;14442;50.196;8.096;2022-10-17T07:06:31;1.00;;;0.63;;
15982;SDS011;14442;50.196;8.096;2022-10-17T07:08:58;0.50;;;0.50;;
15982;SDS011;14442;50.196;8.096;2022-10-17T07:11:26;0.50;;;0.50;;
15982;SDS011;14442;50.196;8.096;2022-10-17T07:13:53;0.60;;;0.60;;
15982;SDS011;14442;50.196;8.096;2022-10-17T07:16:20;0.80;;;0.80;;
15982;SDS011;14442;50.196;8.096;2022-10-17T07:18:47;0.50;;;0.47;;
15982;SDS011;14442;50.196;8.096;2022-10-17T07:21:15;0.53;;;0.50;;
15982;SDS011;14442;50.196;8.096;2022-10-17T07:23:43;1.37;;;0.70;;
15982;SDS011;14442;50.196;8.096;2022-10-17T07:26:10;0.40;;;0.37;;
15982;SDS011;14442;50.196;8.096;2022-10-17T07:28:38;0.50;;;0.50;;
15982;SDS011;14442;50.196;8.096;2022-10-17T07:31:08;0.50;;;0.50;;
15982;SDS011;14442;50.196;8.096;2022-10-17T07:33:36;0.60;;;0.60;;
15982;SDS011;14442;50.196;8.096;2022-10-17T07:36:03;0.70;;;0.53;;
15982;SDS011;14442;50.196;8.096;2022-10-17T07:38:32;0.40;;;0.40;;
15982;SDS011;14442;50.196;8.096;2022-10-17T07:41:00;1.40;;;0.67;;
15982;SDS011;14442;50.196;8.096;2022-10-17T07:43:28;0.53;;;0.50;;
15982;SDS011;14442;50.196;8.096;2022-10-17T07:45:55;0.83;;;0.50;;
15982;SDS011;14442;50.196;8.096;2022-10-17T07:48:23;0.93;;;0.50;;
15982;SDS011;14442;50.196;8.096;2022-10-17T07:50:50;0.93;;;0.80;;
15982;SDS011;14442;50.196;8.096;2022-10-17T07:53:17;1.47;;;0.80;;
15982;SDS011;14442;50.196;8.096;2022-10-17T07:55:45;1.00;;;0.60;;
15982;SDS011;14442;50.196;8.096;2022-10-17T07:58:14;3.93;;;0.70;;
15982;SDS011;14442;50.196;8.096;2022-10-17T08:00:40;1.20;;;0.50;;
15982;SDS011;14442;50.196;8.096;2022-10-17T08:03:08;0.50;;;0.50;;
15982;SDS011;14442;50.196;8.096;2022-10-17T08:05:35;7.83;;;1.00;;
15982;SDS011;14442;50.196;8.096;2022-10-17T08:08:02;4.37;;;0.90;;
15982;SDS011;14442;50.196;8.096;2022-10-17T08:10:29;3.00;;;0.87;;
15982;SDS011;14442;50.196;8.096;2022-10-17T08:12:57;3.00;;;1.00;;
15982;SDS011;14442;50.196;8.096;2022-10-17T08:15:24;4.83;;;0.90;;
15982;SDS011;14442;50.196;8.096;2022-10-17T08:17:52;4.30;;;1.17;;
15982;SDS011;14442;50.196;8.096;2022-10-17T08:20:19;3.40;;;1.17;;
15982;SDS011;14442;50.196;8.096;2022-10-17T08:22:49;3.83;;;1.00;;
15982;SDS011;14442;50.196;8.096;2022-10-17T08:25:17;9.63;;;1.70;;
15982;SDS011;14442;50.196;8.096;2022-10-17T08:27:44;3.83;;;0.90;;
15982;SDS011;14442;50.196;8.096;2022-10-17T08:30:12;3.40;;;1.37;;
15982;SDS011;14442;50.196;8.096;2022-10-17T08:32:39;12.00;;;1.97;;
15982;SDS011;14442;50.196;8.096;2022-10-17T08:35:06;7.93;;;1.40;;
15982;SDS011;14442;50.196;8.096;2022-10-17T08:37:33;8.37;;;1.43;;
15982;SDS011;14442;50.196;8.096;2022-10-17T08:40:00;6.33;;;1.77;;
15982;SDS011;14442;50.196;8.096;2022-10-17T08:42:33;7.93;;;1.73;;
15982;SDS011;14442;50.196;8.096;2022-10-17T08:45:17;9.13;;;1.90;;
15982;SDS011;14442;50.196;8.096;2022-10-17T08:47:51;6.03;;;1.73;;
15982;SDS011;14442;50.196;8.096;2022-10-17T08:50:23;11.30;;;1.80;;
15982;SDS011;14442;50.196;8.096;2022-10-17T08:52:56;5.67;;;1.60;;
15982;SDS011;14442;50.196;8.096;2022-10-17T08:55:28;6.07;;;1.63;;
15982;SDS011;14442;50.196;8.096;2022-10-17T08:57:58;4.00;;;1.23;;
15982;SDS011;14442;50.196;8.096;2022-10-17T09:00:27;4.00;;;1.30;;
15982;SDS011;14442;50.196;8.096;2022-10-17T09:03:00;5.70;;;1.37;;
15982;SDS011;14442;50.196;8.096;2022-10-17T09:05:41;9.60;;;1.33;;
15982;SDS011;14442;50.196;8.096;2022-10-17T09:08:23;6.37;;;1.10;;
15982;SDS011;14442;50.196;8.096;2022-10-17T09:10:59;5.03;;;1.40;;
15982;SDS011;14442;50.196;8.096;2022-10-17T09:13:34;4.00;;;1.80;;
15982;SDS011;14442;50.196;8.096;2022-10-17T09:16:18;4.80;;;1.33;;
15982;SDS011;14442;50.196;8.096;2022-10-17T09:18:58;6.13;;;1.30;;
15982;SDS011;14442;50.196;8.096;2022-10-17T09:21:30;7.47;;;1.40;;
15982;SDS011;14442;50.196;8.096;2022-10-17T09:24:03;4.37;;;1.17;;
15982;SDS011;14442;50.196;8.096;2022-10-17T09:26:36;7.70;;;1.50;;
15982;SDS011;14442;50.196;8.096;2022-10-17T09:29:04;3.60;;;1.00;;
15982;SDS011;14442;50.196;8.096;2022-10-17T09:31:42;5.83;;;1.40;;
15982;SDS011;14442;50.196;8.096;2022-10-17T09:34:13;5.80;;;1.60;;
15982;SDS011;14442;50.196;8.096;2022-10-17T09:36:41;3.73;;;1.13;;
15982;SDS011;14442;50.196;8.096;2022-10-17T09:39:10;6.10;;;1.53;;
15982;SDS011;14442;50.196;8.096;2022-10-17T09:41:41;4.20;;;1.07;;
15982;SDS011;14442;50.196;8.096;2022-10-17T09:44:16;3.87;;;1.20;;
15982;SDS011;14442;50.196;8.096;2022-10-17T09:46:53;3.60;;;1.17;;
15982;SDS011;14442;50.196;8.096;2022-10-17T09:49:28;1.43;;;0.93;;
15982;SDS011;14442;50.196;8.096;2022-10-17T09:51:58;3.57;;;1.20;;
15982;SDS011;14442;50.196;8.096;2022-10-17T09:54:26;4.60;;;1.20;;
15982;SDS011;14442;50.196;8.096;2022-10-17T09:57:02;2.10;;;1.00;;
15982;SDS011;14442;50.196;8.096;2022-10-17T09:59:32;1.77;;;0.80;;
15982;SDS011;14442;50.196;8.096;2022-10-17T10:02:07;2.87;;;1.00;;
15982;SDS011;14442;50.196;8.096;2022-10-17T10:04:50;3.77;;;1.20;;
15982;SDS011;14442;50.196;8.096;2022-10-17T10:07:18;1.20;;;0.70;;
15982;SDS011;14442;50.196;8.096;2022-10-17T10:09:46;2.93;;;0.70;;
15982;SDS011;14442;50.196;8.096;2022-10-17T10:12:15;2.57;;;1.20;;
15982;SDS011;14442;50.196;8.096;2022-10-17T10:14:43;1.27;;;1.00;;
15982;SDS011;14442;50.196;8.096;2022-10-17T10:17:25;1.87;;;1.00;;
15982;SDS011;14442;50.196;8.096;2022-10-17T10:20:00;3.30;;;1.10;;
15982;SDS011;14442;50.196;8.096;2022-10-17T10:22:28;3.90;;;1.13;;
15982;SDS011;14442;50.196;8.096;2022-10-17T10:25:10;5.13;;;1.10;;
15982;SDS011;14442;50.196;8.096;2022-10-17T10:27:40;3.87;;;1.07;;
15982;SDS011;14442;50.196;8.096;2022-10-17T10:30:15;5.63;;;1.10;;
15982;SDS011;14442;50.196;8.096;2022-10-17T10:32:45;6.60;;;0.97;;
15982;SDS011;14442;50.196;8.096;2022-10-17T10:35:17;8.80;;;1.17;;
15982;SDS011;14442;50.196;8.096;2022-10-17T10:37:46;4.93;;;0.97;;
15982;SDS011;14442;50.196;8.096;2022-10-17T10:40:16;3.07;;;0.83;;
15982;SDS011;14442;50.196;8.096;2022-10-17T10:42:45;3.13;;;1.00;;
15982;SDS011;14442;50.196;8.096;2022-10-17T10:45:14;3.23;;;1.33;;
15982;SDS011;14442;50.196;8.096;2022-10-17T10:47:50;5.57;;;1.40;;
15982;SDS011;14442;50.196;8.096;2022-10-17T10:50:23;4.03;;;1.50;;
15982;SDS011;14442;50.196;8.096;2022-10-17T10:52:55;2.63;;;2.00;;
15982;SDS011;14442;50.196;8.096;2022-10-17T10:55:31;4.90;;;2.50;;
15982;SDS011;14442;50.196;8.096;2022-10-17T10:58:02;4.90;;;3.23;;
15982;SDS011;14442;50.196;8.096;2022-10-17T11:00:45;6.17;;;3.30;;
15982;SDS011;14442;50.196;8.096;2022-10-17T11:03:15;4.23;;;3.87;;
15982;SDS011;14442;50.196;8.096;2022-10-17T11:05:47;4.27;;;3.97;;
15982;SDS011;14442;50.196;8.096;2022-10-17T11:08:18;4.77;;;4.37;;
15982;SDS011;14442;50.196;8.096;2022-10-17T11:10:56;5.87;;;4.60;;
15982;SDS011;14442;50.196;8.096;2022-10-17T11:13:30;7.87;;;5.30;;
15982;SDS011;14442;50.196;8.096;2022-10-17T11:18:49;6.27;;;4.67;;
15982;SDS011;14442;50.196;8.096;2022-10-17T11:21:22;4.13;;;3.87;;
15982;SDS011;14442;50.196;8.096;2022-10-17T11:23:59;8.70;;;3.87;;
15982;SDS011;14442;50.196;8.096;2022-10-17T11:26:32;6.13;;;3.57;;
15982;SDS011;14442;50.196;8.096;2022-10-17T11:29:05;6.23;;;2.90;;
15982;SDS011;14442;50.196;8.096;2022-10-17T11:31:35;3.67;;;2.80;;
15982;SDS011;14442;50.196;8.096;2022-10-17T11:34:06;2.70;;;2.50;;
15982;SDS011;14442;50.196;8.096;2022-10-17T11:36:39;3.13;;;2.00;;
15982;SDS011;14442;50.196;8.096;2022-10-17T11:39:10;4.07;;;1.90;;
15982;SDS011;14442;50.196;8.096;2022-10-17T11:41:42;2.90;;;1.63;;
15982;SDS011;14442;50.196;8.096;2022-10-17T11:44:14;4.53;;;1.50;;
15982;SDS011;14442;50.196;8.096;2022-10-17T11:46:46;1.63;;;1.23;;
15982;SDS011;14442;50.196;8.096;2022-10-17T11:49:17;2.80;;;1.07;;
15982;SDS011;14442;50.196;8.096;2022-10-17T11:51:48;1.43;;;1.10;;
15982;SDS011;14442;50.196;8.096;2022-10-17T11:54:21;3.93;;;1.10;;
15982;SDS011;14442;50.196;8.096;2022-10-17T11:56:52;1.40;;;0.90;;
15982;SDS011;14442;50.196;8.096;2022-10-17T12:02:26;1.50;;;1.07;;
15982;SDS011;14442;50.196;8.096;2022-10-17T12:05:03;1.80;;;1.03;;
15982;SDS011;14442;50.196;8.096;2022-10-17T12:07:41;2.20;;;0.90;;
15982;SDS011;14442;50.196;8.096;2022-10-17T12:10:19;1.23;;;1.00;;
15982;SDS011;14442;50.196;8.096;2022-10-17T12:19:19;3.20;;;0.90;;
15982;SDS011;14442;50.196;8.096;2022-10-17T12:21:53;2.20;;;0.77;;
15982;SDS011;14442;50.196;8.096;2022-10-17T12:24:31;2.37;;;0.73;;
15982;SDS011;14442;50.196;8.096;2022-10-17T12:27:30;2.83;;;0.50;;
15982;SDS011;14442;50.196;8.096;2022-10-17T12:30:16;6.10;;;1.10;;
15982;SDS011;14442;50.196;8.096;2022-10-17T12:35:45;7.47;;;1.43;;
15982;SDS011;14442;50.196;8.096;2022-10-17T12:38:17;3.57;;;0.80;;
15982;SDS011;14442;50.196;8.096;2022-10-17T12:40:51;4.97;;;0.90;;
15982;SDS011;14442;50.196;8.096;2022-10-17T12:49:19;4.90;;;1.27;;
15982;SDS011;14442;50.196;8.096;2022-10-17T12:54:49;1.20;;;0.90;;
15982;SDS011;14442;50.196;8.096;2022-10-17T12:57:20;3.47;;;0.90;;
15982;SDS011;14442;50.196;8.096;2022-10-17T12:59:52;1.30;;;1.20;;
15982;SDS011;14442;50.196;8.096;2022-10-17T13:02:19;1.47;;;1.20;;
15982;SDS011;14442;50.196;8.096;2022-10-17T13:04:49;3.93;;;1.60;;
15982;SDS011;14442;50.196;8.096;2022-10-17T13:07:20;4.20;;;1.50;;
15982;SDS011;14442;50.196;8.096;2022-10-17T13:09:49;2.30;;;1.40;;
15982;SDS011;14442;50.196;8.096;2022-10-17T13:12:18;1.93;;;1.20;;
15982;SDS011;14442;50.196;8.096;2022-10-17T13:14:49;2.10;;;1.47;;
15982;SDS011;14442;50.196;8.096;2022-10-17T13:17:22;7.67;;;1.93;;
15982;SDS011;14442;50.196;8.096;2022-10-17T13:19:51;4.13;;;1.40;;
15982;SDS011;14442;50.196;8.096;2022-10-17T13:22:19;3.83;;;1.70;;
15982;SDS011;14442;50.196;8.096;2022-10-17T13:24:47;1.83;;;1.00;;
15982;SDS011;14442;50.196;8.096;2022-10-17T13:27:21;6.77;;;1.80;;
15982;SDS011;14442;50.196;8.096;2022-10-17T13:29:50;2.23;;;1.33;;
15982;SDS011;14442;50.196;8.096;2022-10-17T13:32:16;4.03;;;1.50;;
15982;SDS011;14442;50.196;8.096;2022-10-17T13:34:43;4.53;;;1.63;;
15982;SDS011;14442;50.196;8.096;2022-10-17T13:37:11;3.30;;;1.40;;
15982;SDS011;14442;50.196;8.096;2022-10-17T13:39:40;2.50;;;1.37;;
15982;SDS011;14442;50.196;8.096;2022-10-17T13:42:16;2.60;;;1.23;;
15982;SDS011;14442;50.196;8.096;2022-10-17T13:44:46;3.07;;;1.30;;
15982;SDS011;14442;50.196;8.096;2022-10-17T13:47:20;5.60;;;1.80;;
15982;SDS011;14442;50.196;8.096;2022-10-17T13:49:48;5.10;;;1.50;;
15982;SDS011;14442;50.196;8.096;2022-10-17T13:52:16;2.47;;;1.23;;
15982;SDS011;14442;50.196;8.096;2022-10-17T13:54:45;5.27;;;1.40;;
15982;SDS011;14442;50.196;8.096;2022-10-17T13:57:17;6.43;;;1.30;;
15982;SDS011;14442;50.196;8.096;2022-10-17T13:59:46;3.07;;;1.37;;
15982;SDS011;14442;50.196;8.096;2022-10-17T14:02:18;2.50;;;1.07;;
15982;SDS011;14442;50.196;8.096;2022-10-17T14:04:45;4.40;;;1.27;;
15982;SDS011;14442;50.196;8.096;2022-10-17T14:07:18;2.23;;;1.23;;
15982;SDS011;14442;50.196;8.096;2022-10-17T14:09:50;8.57;;;1.73;;
15982;SDS011;14442;50.196;8.096;2022-10-17T14:12:18;5.90;;;1.13;;
15982;SDS011;14442;50.196;8.096;2022-10-17T14:14:48;4.17;;;0.87;;
15982;SDS011;14442;50.196;8.096;2022-10-17T14:17:20;2.20;;;1.13;;
15982;SDS011;14442;50.196;8.096;2022-10-17T14:19:50;1.43;;;0.83;;
15982;SDS011;14442;50.196;8.096;2022-10-17T14:22:24;2.40;;;1.00;;
15982;SDS011;14442;50.196;8.096;2022-10-17T14:24:52;2.80;;;1.03;;
15982;SDS011;14442;50.196;8.096;2022-10-17T14:27:29;3.20;;;1.07;;
15982;SDS011;14442;50.196;8.096;2022-10-17T14:29:59;5.27;;;1.37;;
15982;SDS011;14442;50.196;8.096;2022-10-17T14:32:27;2.63;;;1.20;;
15982;SDS011;14442;50.196;8.096;2022-10-17T14:34:57;3.47;;;1.10;;
15982;SDS011;14442;50.196;8.096;2022-10-17T14:37:29;5.47;;;1.10;;
15982;SDS011;14442;50.196;8.096;2022-10-17T14:40:01;5.10;;;1.30;;
15982;SDS011;14442;50.196;8.096;2022-10-17T14:42:31;3.63;;;1.50;;
15982;SDS011;14442;50.196;8.096;2022-10-17T14:45:05;2.77;;;1.40;;
15982;SDS011;14442;50.196;8.096;2022-10-17T14:47:33;2.63;;;1.43;;
15982;SDS011;14442;50.196;8.096;2022-10-17T14:50:02;5.47;;;1.47;;
15982;SDS011;14442;50.196;8.096;2022-10-17T14:52:31;2.73;;;0.90;;
15982;SDS011;14442;50.196;8.096;2022-10-17T14:54:59;3.87;;;1.30;;
15982;SDS011;14442;50.196;8.096;2022-10-17T14:57:42;2.77;;;1.40;;
15982;SDS011;14442;50.196;8.096;2022-10-17T15:00:12;3.30;;;1.30;;
15982;SDS011;14442;50.196;8.096;2022-10-17T15:02:39;7.23;;;1.60;;
15982;SDS011;14442;50.196;8.096;2022-10-17T15:05:07;2.60;;;1.00;;
15982;SDS011;14442;50.196;8.096;2022-10-17T15:07:34;6.33;;;1.40;;
15982;SDS011;14442;50.196;8.096;2022-10-17T15:10:00;5.67;;;1.10;;
15982;SDS011;14442;50.196;8.096;2022-10-17T15:12:27;4.30;;;1.33;;
15982;SDS011;14442;50.196;8.096;2022-10-17T15:14:56;7.47;;;1.37;;
15982;SDS011;14442;50.196;8.096;2022-10-17T15:17:24;4.77;;;1.37;;
15982;SDS011;14442;50.196;8.096;2022-10-17T15:19:52;4.20;;;1.20;;
15982;SDS011;14442;50.196;8.096;2022-10-17T15:22:19;4.00;;;1.17;;
15982;SDS011;14442;50.196;8.096;2022-10-17T15:24:45;4.70;;;1.80;;
15982;SDS011;14442;50.196;8.096;2022-10-17T15:27:13;5.50;;;1.20;;
15982;SDS011;14442;50.196;8.096;2022-10-17T15:29:41;4.93;;;1.10;;
15982;SDS011;14442;50.196;8.096;2022-10-17T15:32:09;8.70;;;1.60;;
15982;SDS011;14442;50.196;8.096;2022-10-17T15:34:36;6.07;;;1.20;;